Millington, TN

5:21 PM CST on November 27, 2014 (GMT -0600)
Millington Municipal | Change Station
CLOSE
Current Station
Airport
Location: Millington,
Elevation: 322 ft
Nearby Weather Stations

Elev 322 ft 35.36 °N, 89.87 °W | Updated 31 minutes ago

Clear
Clear
39 °F
Feels Like 37 °F
N
4
Wind Variable Wind from North

Today
High -- | Low -- °F
--% Chance of Precip.
Yesterday
High -- | Low -- °F
Precip. -- in
6:46 AM 4:47 PM
Waxing Crescent, 34% visible
Pressure 30.49 in
Visibility 10.0 miles
Clouds Few 3600 ft
Windchill 37 °F
Dew Point 28 °F
Humidity 65%
Rainfall 0.00 in
Snow Depth Not available.
UV 0 out of 12
Pollen .30 out of 12
Air Quality Not available.
Flu Activity Not available.
METAR KNQA 272250Z 36003KT 10SM FEW036 04/M02 A3049

More Conditions Fewer Conditions

Pressure 30.49 in
Visibility 10.0 miles
Clouds Few 3600 ft
Windchill 37 °F
Dew Point 28 °F
Humidity 65%
Rainfall 0.00 in
Snow Depth Not available.
UV 0 out of 12
Pollen .30 out of 12
Air Quality Not available.
Flu Activity Not available.
METAR KNQA 272250Z 36003KT 10SM FEW036 04/M02 A3049

More Conditions Fewer Conditions

10-Day Weather Forecast

Almanac

Astronomy

Nov. 27, 2014 Rise Set
Actual Time
Civil Twilight
Nautical Twilight
Astronomical Twilight
Moon
Length of Visible Light
Length of Day
Tomorrow will be .
, % of the Moon is Illuminated

Today's Extremes

State Highs State Lows

Community

WunderPhotos

Upload Photos

1,774,135 photos uploaded!

WunderBlogs® & News

Nearby

Air Quality

  Air Quality AQ Index Pollutant
Not available.

Snow Depth

Station Depth Elevation

Earthquake Activity

City Distance Mag. Time & Date
Minimum magnitude displayed is 2.5.

Coastal Water Temperatures

Place Temperature

Nearby Weather Stations